sensor_id;sensor_type;location;lat;lon;timestamp;P1;durP1;ratioP1;P2;durP2;ratioP2
28904;SDS011;60848;53.884;11.446;2022-08-25T00:34:24;10.23;;;5.78;;
28904;SDS011;60848;53.884;11.446;2022-08-25T00:36:53;8.15;;;6.40;;
28904;SDS011;60848;53.884;11.446;2022-08-25T00:39:24;10.52;;;7.88;;
28904;SDS011;60848;53.884;11.446;2022-08-25T00:41:54;9.68;;;8.00;;
28904;SDS011;60848;53.884;11.446;2022-08-25T00:44:24;10.27;;;7.38;;
28904;SDS011;60848;53.884;11.446;2022-08-25T00:46:54;11.48;;;7.45;;
28904;SDS011;60848;53.884;11.446;2022-08-25T00:49:27;11.85;;;6.72;;
28904;SDS011;60848;53.884;11.446;2022-08-25T00:52:03;10.73;;;6.28;;
28904;SDS011;60848;53.884;11.446;2022-08-25T00:54:36;10.75;;;6.78;;
28904;SDS011;60848;53.884;11.446;2022-08-25T00:57:08;12.60;;;5.88;;
28904;SDS011;60848;53.884;11.446;2022-08-25T00:59:39;9.15;;;6.60;;
28904;SDS011;60848;53.884;11.446;2022-08-25T01:02:08;10.15;;;6.88;;
28904;SDS011;60848;53.884;11.446;2022-08-25T01:04:39;10.35;;;6.78;;
28904;SDS011;60848;53.884;11.446;2022-08-25T01:07:16;10.63;;;6.68;;
28904;SDS011;60848;53.884;11.446;2022-08-25T01:12:16;11.02;;;7.03;;
28904;SDS011;60848;53.884;11.446;2022-08-25T01:14:44;11.48;;;6.93;;
28904;SDS011;60848;53.884;11.446;2022-08-25T01:17:14;13.02;;;7.05;;
28904;SDS011;60848;53.884;11.446;2022-08-25T01:19:44;10.82;;;7.20;;
28904;SDS011;60848;53.884;11.446;2022-08-25T01:22:14;9.50;;;7.10;;
28904;SDS011;60848;53.884;11.446;2022-08-25T01:24:46;12.57;;;6.68;;
28904;SDS011;60848;53.884;11.446;2022-08-25T01:27:22;9.95;;;7.03;;
28904;SDS011;60848;53.884;11.446;2022-08-25T01:29:53;10.38;;;7.18;;
28904;SDS011;60848;53.884;11.446;2022-08-25T01:32:23;10.27;;;7.38;;
28904;SDS011;60848;53.884;11.446;2022-08-25T01:34:52;12.60;;;7.32;;
28904;SDS011;60848;53.884;11.446;2022-08-25T01:37:21;11.07;;;7.47;;
28904;SDS011;60848;53.884;11.446;2022-08-25T01:39:50;10.43;;;7.45;;
28904;SDS011;60848;53.884;11.446;2022-08-25T01:42:22;13.50;;;7.63;;
28904;SDS011;60848;53.884;11.446;2022-08-25T01:44:59;13.37;;;7.90;;
28904;SDS011;60848;53.884;11.446;2022-08-25T01:47:27;14.18;;;7.78;;
28904;SDS011;60848;53.884;11.446;2022-08-25T01:49:57;13.10;;;8.18;;
28904;SDS011;60848;53.884;11.446;2022-08-25T01:52:28;10.38;;;7.38;;
28904;SDS011;60848;53.884;11.446;2022-08-25T01:57:28;12.38;;;8.27;;
28904;SDS011;60848;53.884;11.446;2022-08-25T01:59:57;11.93;;;8.30;;
28904;SDS011;60848;53.884;11.446;2022-08-25T02:02:36;15.73;;;8.23;;
28904;SDS011;60848;53.884;11.446;2022-08-25T02:05:08;13.77;;;8.40;;
28904;SDS011;60848;53.884;11.446;2022-08-25T02:07:38;10.85;;;8.20;;
28904;SDS011;60848;53.884;11.446;2022-08-25T02:10:08;14.07;;;8.33;;
28904;SDS011;60848;53.884;11.446;2022-08-25T02:12:38;12.15;;;8.07;;
28904;SDS011;60848;53.884;11.446;2022-08-25T02:15:07;15.05;;;8.45;;
28904;SDS011;60848;53.884;11.446;2022-08-25T02:17:36;14.75;;;9.85;;
28904;SDS011;60848;53.884;11.446;2022-08-25T02:20:05;14.93;;;9.77;;
28904;SDS011;60848;53.884;11.446;2022-08-25T02:22:35;17.67;;;10.45;;
28904;SDS011;60848;53.884;11.446;2022-08-25T02:25:07;18.83;;;11.18;;
28904;SDS011;60848;53.884;11.446;2022-08-25T02:27:36;20.15;;;12.52;;
28904;SDS011;60848;53.884;11.446;2022-08-25T02:30:04;22.40;;;12.30;;
28904;SDS011;60848;53.884;11.446;2022-08-25T02:32:33;19.10;;;12.38;;
28904;SDS011;60848;53.884;11.446;2022-08-25T02:40:00;24.00;;;12.52;;
28904;SDS011;60848;53.884;11.446;2022-08-25T02:42:31;22.90;;;13.95;;
28904;SDS011;60848;53.884;11.446;2022-08-25T02:45:00;23.55;;;13.88;;
28904;SDS011;60848;53.884;11.446;2022-08-25T02:47:30;29.77;;;14.02;;
28904;SDS011;60848;53.884;11.446;2022-08-25T02:50:02;26.67;;;14.60;;
28904;SDS011;60848;53.884;11.446;2022-08-25T02:52:32;36.75;;;15.27;;
28904;SDS011;60848;53.884;11.446;2022-08-25T02:55:05;32.42;;;15.27;;
28904;SDS011;60848;53.884;11.446;2022-08-25T02:57:39;29.70;;;15.45;;
28904;SDS011;60848;53.884;11.446;2022-08-25T03:00:09;33.43;;;15.87;;
28904;SDS011;60848;53.884;11.446;2022-08-25T03:02:39;28.17;;;16.95;;
28904;SDS011;60848;53.884;11.446;2022-08-25T03:05:08;25.20;;;17.02;;
28904;SDS011;60848;53.884;11.446;2022-08-25T03:07:40;33.08;;;17.30;;
28904;SDS011;60848;53.884;11.446;2022-08-25T03:10:11;24.38;;;16.77;;
28904;SDS011;60848;53.884;11.446;2022-08-25T03:12:43;26.67;;;17.27;;
28904;SDS011;60848;53.884;11.446;2022-08-25T03:15:13;24.13;;;16.90;;
28904;SDS011;60848;53.884;11.446;2022-08-25T03:17:43;31.97;;;16.90;;
28904;SDS011;60848;53.884;11.446;2022-08-25T03:20:16;28.33;;;16.27;;
28904;SDS011;60848;53.884;11.446;2022-08-25T03:22:45;25.85;;;16.42;;
28904;SDS011;60848;53.884;11.446;2022-08-25T03:25:14;23.00;;;15.77;;
28904;SDS011;60848;53.884;11.446;2022-08-25T03:28:02;28.42;;;17.38;;
28904;SDS011;60848;53.884;11.446;2022-08-25T03:30:31;25.57;;;17.33;;
28904;SDS011;60848;53.884;11.446;2022-08-25T03:32:59;25.98;;;17.08;;
28904;SDS011;60848;53.884;11.446;2022-08-25T03:35:28;25.67;;;17.10;;
28904;SDS011;60848;53.884;11.446;2022-08-25T03:37:57;27.25;;;16.90;;
28904;SDS011;60848;53.884;11.446;2022-08-25T03:40:28;25.58;;;17.45;;
28904;SDS011;60848;53.884;11.446;2022-08-25T03:42:58;27.58;;;18.77;;
28904;SDS011;60848;53.884;11.446;2022-08-25T03:45:28;28.15;;;18.63;;
28904;SDS011;60848;53.884;11.446;2022-08-25T03:47:57;29.33;;;18.17;;
28904;SDS011;60848;53.884;11.446;2022-08-25T03:50:26;26.13;;;18.83;;
28904;SDS011;60848;53.884;11.446;2022-08-25T03:52:55;30.65;;;19.02;;
28904;SDS011;60848;53.884;11.446;2022-08-25T03:55:24;30.85;;;19.58;;
28904;SDS011;60848;53.884;11.446;2022-08-25T03:57:54;28.00;;;19.20;;
28904;SDS011;60848;53.884;11.446;2022-08-25T04:00:23;32.10;;;19.08;;
28904;SDS011;60848;53.884;11.446;2022-08-25T04:02:53;29.35;;;19.48;;
28904;SDS011;60848;53.884;11.446;2022-08-25T04:05:21;29.70;;;19.70;;
28904;SDS011;60848;53.884;11.446;2022-08-25T04:07:52;27.45;;;18.70;;
28904;SDS011;60848;53.884;11.446;2022-08-25T04:10:23;30.65;;;20.10;;
28904;SDS011;60848;53.884;11.446;2022-08-25T04:12:52;26.65;;;18.40;;
28904;SDS011;60848;53.884;11.446;2022-08-25T04:15:24;30.42;;;20.17;;
28904;SDS011;60848;53.884;11.446;2022-08-25T04:17:56;37.67;;;21.58;;
28904;SDS011;60848;53.884;11.446;2022-08-25T04:20:27;28.75;;;19.52;;
28904;SDS011;60848;53.884;11.446;2022-08-25T04:22:55;31.20;;;19.98;;
28904;SDS011;60848;53.884;11.446;2022-08-25T04:25:26;31.48;;;19.75;;
28904;SDS011;60848;53.884;11.446;2022-08-25T04:27:55;28.17;;;18.90;;
28904;SDS011;60848;53.884;11.446;2022-08-25T04:30:23;27.52;;;19.63;;
28904;SDS011;60848;53.884;11.446;2022-08-25T04:32:52;24.52;;;16.05;;
28904;SDS011;60848;53.884;11.446;2022-08-25T04:35:21;25.42;;;16.65;;
28904;SDS011;60848;53.884;11.446;2022-08-25T04:37:50;20.73;;;14.30;;
28904;SDS011;60848;53.884;11.446;2022-08-25T04:40:18;20.25;;;12.43;;
28904;SDS011;60848;53.884;11.446;2022-08-25T04:42:54;19.55;;;13.05;;
28904;SDS011;60848;53.884;11.446;2022-08-25T04:45:22;18.13;;;13.32;;
28904;SDS011;60848;53.884;11.446;2022-08-25T04:47:51;19.63;;;13.50;;
28904;SDS011;60848;53.884;11.446;2022-08-25T04:50:22;18.33;;;13.35;;
28904;SDS011;60848;53.884;11.446;2022-08-25T04:52:50;21.20;;;14.55;;
28904;SDS011;60848;53.884;11.446;2022-08-25T04:55:19;20.92;;;16.48;;
28904;SDS011;60848;53.884;11.446;2022-08-25T04:57:50;20.70;;;14.63;;
28904;SDS011;60848;53.884;11.446;2022-08-25T05:00:21;20.80;;;14.60;;
28904;SDS011;60848;53.884;11.446;2022-08-25T05:02:49;21.75;;;15.60;;
28904;SDS011;60848;53.884;11.446;2022-08-25T05:05:22;23.13;;;15.30;;
28904;SDS011;60848;53.884;11.446;2022-08-25T05:47:57;16.20;;;11.88;;
28904;SDS011;60848;53.884;11.446;2022-08-25T05:50:26;19.25;;;12.98;;
28904;SDS011;60848;53.884;11.446;2022-08-25T05:52:57;18.23;;;12.50;;
28904;SDS011;60848;53.884;11.446;2022-08-25T05:55:27;18.42;;;14.30;;
28904;SDS011;60848;53.884;11.446;2022-08-25T05:57:55;17.92;;;12.75;;
28904;SDS011;60848;53.884;11.446;2022-08-25T06:00:27;17.70;;;13.73;;
28904;SDS011;60848;53.884;11.446;2022-08-25T06:02:56;15.13;;;11.63;;
28904;SDS011;60848;53.884;11.446;2022-08-25T06:05:23;15.23;;;11.18;;
28904;SDS011;60848;53.884;11.446;2022-08-25T06:07:51;16.60;;;11.57;;
28904;SDS011;60848;53.884;11.446;2022-08-25T06:10:20;16.67;;;11.57;;
28904;SDS011;60848;53.884;11.446;2022-08-25T06:12:50;16.58;;;11.27;;
28904;SDS011;60848;53.884;11.446;2022-08-25T06:15:22;16.38;;;10.70;;
28904;SDS011;60848;53.884;11.446;2022-08-25T06:17:53;13.80;;;11.77;;
28904;SDS011;60848;53.884;11.446;2022-08-25T06:20:27;18.15;;;12.02;;
28904;SDS011;60848;53.884;11.446;2022-08-25T06:22:58;14.83;;;11.13;;
28904;SDS011;60848;53.884;11.446;2022-08-25T06:25:26;15.60;;;11.18;;
28904;SDS011;60848;53.884;11.446;2022-08-25T06:27:59;13.10;;;10.82;;
28904;SDS011;60848;53.884;11.446;2022-08-25T06:30:28;17.40;;;11.23;;
28904;SDS011;60848;53.884;11.446;2022-08-25T06:32:57;15.15;;;11.05;;
28904;SDS011;60848;53.884;11.446;2022-08-25T06:35:27;13.90;;;10.63;;
28904;SDS011;60848;53.884;11.446;2022-08-25T06:37:57;16.52;;;10.10;;
28904;SDS011;60848;53.884;11.446;2022-08-25T06:40:26;13.98;;;10.68;;
28904;SDS011;60848;53.884;11.446;2022-08-25T06:42:54;14.63;;;10.70;;
28904;SDS011;60848;53.884;11.446;2022-08-25T06:45:24;13.93;;;10.00;;
28904;SDS011;60848;53.884;11.446;2022-08-25T06:47:53;13.85;;;10.13;;
28904;SDS011;60848;53.884;11.446;2022-08-25T06:50:24;11.95;;;9.30;;
28904;SDS011;60848;53.884;11.446;2022-08-25T06:52:53;13.20;;;9.27;;
28904;SDS011;60848;53.884;11.446;2022-08-25T06:55:22;14.57;;;10.07;;
28904;SDS011;60848;53.884;11.446;2022-08-25T06:57:53;12.37;;;9.73;;
28904;SDS011;60848;53.884;11.446;2022-08-25T07:00:24;14.38;;;8.68;;
28904;SDS011;60848;53.884;11.446;2022-08-25T07:02:57;14.63;;;9.05;;
28904;SDS011;60848;53.884;11.446;2022-08-25T07:05:27;13.95;;;9.32;;
28904;SDS011;60848;53.884;11.446;2022-08-25T07:08:10;13.70;;;9.32;;
28904;SDS011;60848;53.884;11.446;2022-08-25T07:10:41;13.30;;;8.38;;
28904;SDS011;60848;53.884;11.446;2022-08-25T07:13:13;12.98;;;8.57;;
28904;SDS011;60848;53.884;11.446;2022-08-25T07:15:43;16.70;;;11.63;;
28904;SDS011;60848;53.884;11.446;2022-08-25T07:18:11;11.13;;;7.18;;
28904;SDS011;60848;53.884;11.446;2022-08-25T07:20:41;12.27;;;7.60;;
28904;SDS011;60848;53.884;11.446;2022-08-25T07:23:10;12.10;;;7.43;;
28904;SDS011;60848;53.884;11.446;2022-08-25T07:25:40;11.10;;;7.38;;
28904;SDS011;60848;53.884;11.446;2022-08-25T07:28:09;10.52;;;6.97;;
28904;SDS011;60848;53.884;11.446;2022-08-25T07:30:38;14.05;;;7.07;;
28904;SDS011;60848;53.884;11.446;2022-08-25T07:33:10;11.10;;;7.22;;
28904;SDS011;60848;53.884;11.446;2022-08-25T07:35:39;10.32;;;6.82;;
28904;SDS011;60848;53.884;11.446;2022-08-25T07:38:09;15.43;;;8.07;;
28904;SDS011;60848;53.884;11.446;2022-08-25T08:18:40;10.52;;;6.72;;
28904;SDS011;60848;53.884;11.446;2022-08-25T08:21:10;11.02;;;7.20;;
28904;SDS011;60848;53.884;11.446;2022-08-25T08:23:49;8.82;;;6.60;;
28904;SDS011;60848;53.884;11.446;2022-08-25T08:26:24;10.20;;;6.53;;
28904;SDS011;60848;53.884;11.446;2022-08-25T08:29:13;12.18;;;6.25;;
28904;SDS011;60848;53.884;11.446;2022-08-25T08:31:42;13.07;;;6.60;;
28904;SDS011;60848;53.884;11.446;2022-08-25T08:34:15;10.07;;;6.32;;
28904;SDS011;60848;53.884;11.446;2022-08-25T08:36:44;13.40;;;6.00;;
28904;SDS011;60848;53.884;11.446;2022-08-25T08:39:12;11.73;;;5.75;;
28904;SDS011;60848;53.884;11.446;2022-08-25T08:41:46;14.00;;;6.03;;
28904;SDS011;60848;53.884;11.446;2022-08-25T08:44:47;10.88;;;6.55;;
28904;SDS011;60848;53.884;11.446;2022-08-25T08:47:38;13.25;;;5.93;;
28904;SDS011;60848;53.884;11.446;2022-08-25T08:50:23;9.32;;;5.20;;
28904;SDS011;60848;53.884;11.446;2022-08-25T08:55:31;10.55;;;4.82;;
28904;SDS011;60848;53.884;11.446;2022-08-25T08:58:04;9.77;;;4.60;;
28904;SDS011;60848;53.884;11.446;2022-08-25T09:31:50;7.78;;;4.65;;
28904;SDS011;60848;53.884;11.446;2022-08-25T09:34:27;9.27;;;4.35;;
28904;SDS011;60848;53.884;11.446;2022-08-25T09:37:02;10.68;;;4.53;;
28904;SDS011;60848;53.884;11.446;2022-08-25T09:39:33;9.85;;;4.30;;
28904;SDS011;60848;53.884;11.446;2022-08-25T09:42:02;10.43;;;4.63;;
28904;SDS011;60848;53.884;11.446;2022-08-25T09:44:37;11.57;;;4.60;;
28904;SDS011;60848;53.884;11.446;2022-08-25T09:47:18;12.48;;;4.80;;
28904;SDS011;60848;53.884;11.446;2022-08-25T09:49:50;13.77;;;4.53;;
28904;SDS011;60848;53.884;11.446;2022-08-25T09:52:35;13.00;;;4.65;;
28904;SDS011;60848;53.884;11.446;2022-08-25T09:55:21;11.68;;;4.57;;
28904;SDS011;60848;53.884;11.446;2022-08-25T09:57:54;9.20;;;4.00;;
28904;SDS011;60848;53.884;11.446;2022-08-25T10:00:25;10.45;;;3.88;;
28904;SDS011;60848;53.884;11.446;2022-08-25T10:03:05;7.53;;;4.22;;
28904;SDS011;60848;53.884;11.446;2022-08-25T10:05:38;9.20;;;4.03;;
28904;SDS011;60848;53.884;11.446;2022-08-25T10:08:29;10.35;;;4.20;;
28904;SDS011;60848;53.884;11.446;2022-08-25T10:11:00;9.27;;;4.00;;
28904;SDS011;60848;53.884;11.446;2022-08-25T10:13:35;9.73;;;3.63;;
28904;SDS011;60848;53.884;11.446;2022-08-25T10:16:09;7.85;;;3.97;;
28904;SDS011;60848;53.884;11.446;2022-08-25T10:19:04;9.85;;;4.45;;
28904;SDS011;60848;53.884;11.446;2022-08-25T10:21:36;8.35;;;4.20;;
28904;SDS011;60848;53.884;11.446;2022-08-25T10:24:07;10.43;;;4.20;;
28904;SDS011;60848;53.884;11.446;2022-08-25T10:26:41;8.98;;;3.97;;
28904;SDS011;60848;53.884;11.446;2022-08-25T10:29:29;7.70;;;3.83;;
28904;SDS011;60848;53.884;11.446;2022-08-25T10:32:08;7.78;;;4.00;;
28904;SDS011;60848;53.884;11.446;2022-08-25T10:34:44;8.10;;;3.55;;
28904;SDS011;60848;53.884;11.446;2022-08-25T10:37:21;7.32;;;3.33;;
28904;SDS011;60848;53.884;11.446;2022-08-25T10:40:08;10.45;;;3.72;;
28904;SDS011;60848;53.884;11.446;2022-08-25T10:42:51;12.05;;;3.92;;
28904;SDS011;60848;53.884;11.446;2022-08-25T10:45:29;6.88;;;3.50;;
28904;SDS011;60848;53.884;11.446;2022-08-25T10:48:25;6.40;;;3.72;;
28904;SDS011;60848;53.884;11.446;2022-08-25T10:51:07;7.85;;;3.95;;
28904;SDS011;60848;53.884;11.446;2022-08-25T10:53:55;6.72;;;3.67;;
28904;SDS011;60848;53.884;11.446;2022-08-25T10:59:15;8.38;;;3.63;;
28904;SDS011;60848;53.884;11.446;2022-08-25T11:04:56;7.75;;;3.50;;
28904;SDS011;60848;53.884;11.446;2022-08-25T11:07:30;8.77;;;3.75;;
28904;SDS011;60848;53.884;11.446;2022-08-25T11:10:02;10.85;;;3.78;;
28904;SDS011;60848;53.884;11.446;2022-08-25T11:12:39;6.38;;;3.88;;
28904;SDS011;60848;53.884;11.446;2022-08-25T11:20:16;6.32;;;3.63;;
28904;SDS011;60848;53.884;11.446;2022-08-25T11:25:37;6.85;;;4.00;;
28904;SDS011;60848;53.884;11.446;2022-08-25T11:28:11;7.32;;;3.88;;
28904;SDS011;60848;53.884;11.446;2022-08-25T11:30:48;8.98;;;3.55;;
28904;SDS011;60848;53.884;11.446;2022-08-25T11:33:18;7.28;;;3.72;;
28904;SDS011;60848;53.884;11.446;2022-08-25T11:35:48;7.45;;;3.78;;
28904;SDS011;60848;53.884;11.446;2022-08-25T11:38:26;7.43;;;3.40;;
28904;SDS011;60848;53.884;11.446;2022-08-25T11:41:09;8.02;;;3.78;;
28904;SDS011;60848;53.884;11.446;2022-08-25T11:43:53;6.03;;;3.40;;
28904;SDS011;60848;53.884;11.446;2022-08-25T11:46:44;4.45;;;3.70;;
28904;SDS011;60848;53.884;11.446;2022-08-25T11:52:40;6.50;;;3.28;;
28904;SDS011;60848;53.884;11.446;2022-08-25T11:55:17;5.47;;;3.00;;
28904;SDS011;60848;53.884;11.446;2022-08-25T11:57:52;6.22;;;3.15;;
28904;SDS011;60848;53.884;11.446;2022-08-25T12:00:52;6.53;;;2.75;;
28904;SDS011;60848;53.884;11.446;2022-08-25T12:10:13;7.43;;;3.13;;
28904;SDS011;60848;53.884;11.446;2022-08-25T12:12:55;4.60;;;2.88;;
28904;SDS011;60848;53.884;11.446;2022-08-25T12:15:26;6.82;;;3.55;;
28904;SDS011;60848;53.884;11.446;2022-08-25T12:18:10;5.18;;;3.05;;
28904;SDS011;60848;53.884;11.446;2022-08-25T12:23:41;5.05;;;3.17;;
28904;SDS011;60848;53.884;11.446;2022-08-25T12:26:18;5.68;;;3.38;;
28904;SDS011;60848;53.884;11.446;2022-08-25T12:28:59;6.30;;;3.10;;
28904;SDS011;60848;53.884;11.446;2022-08-25T12:31:44;9.95;;;3.63;;
28904;SDS011;60848;53.884;11.446;2022-08-25T12:37:56;9.55;;;3.85;;
28904;SDS011;60848;53.884;11.446;2022-08-25T12:40:33;7.93;;;3.25;;
28904;SDS011;60848;53.884;11.446;2022-08-25T12:43:11;7.43;;;3.20;;
28904;SDS011;60848;53.884;11.446;2022-08-25T12:45:54;9.85;;;3.33;;
28904;SDS011;60848;53.884;11.446;2022-08-25T12:49:10;8.68;;;3.30;;
28904;SDS011;60848;53.884;11.446;2022-08-25T12:51:55;8.20;;;3.00;;
28904;SDS011;60848;53.884;11.446;2022-08-25T12:54:38;6.15;;;3.20;;
28904;SDS011;60848;53.884;11.446;2022-08-25T13:00:12;4.45;;;2.95;;
28904;SDS011;60848;53.884;11.446;2022-08-25T13:06:00;9.00;;;3.30;;
28904;SDS011;60848;53.884;11.446;2022-08-25T13:08:49;8.02;;;3.10;;
28904;SDS011;60848;53.884;11.446;2022-08-25T13:11:36;9.02;;;3.33;;
28904;SDS011;60848;53.884;11.446;2022-08-25T13:14:11;7.93;;;3.42;;
28904;SDS011;60848;53.884;11.446;2022-08-25T13:16:52;9.18;;;3.15;;
28904;SDS011;60848;53.884;11.446;2022-08-25T13:19:21;9.18;;;3.40;;
28904;SDS011;60848;53.884;11.446;2022-08-25T13:21:51;5.88;;;3.25;;
28904;SDS011;60848;53.884;11.446;2022-08-25T13:24:21;6.50;;;3.10;;
28904;SDS011;60848;53.884;11.446;2022-08-25T13:26:56;6.85;;;3.45;;
28904;SDS011;60848;53.884;11.446;2022-08-25T13:29:30;8.52;;;3.70;;
28904;SDS011;60848;53.884;11.446;2022-08-25T13:32:07;6.57;;;2.92;;
28904;SDS011;60848;53.884;11.446;2022-08-25T13:34:40;8.10;;;3.40;;
28904;SDS011;60848;53.884;11.446;2022-08-25T13:37:14;5.13;;;3.10;;
28904;SDS011;60848;53.884;11.446;2022-08-25T13:42:54;7.63;;;3.45;;
28904;SDS011;60848;53.884;11.446;2022-08-25T13:45:31;5.03;;;3.25;;
28904;SDS011;60848;53.884;11.446;2022-08-25T13:48:09;7.13;;;3.10;;
28904;SDS011;60848;53.884;11.446;2022-08-25T13:50:48;6.30;;;3.05;;
28904;SDS011;60848;53.884;11.446;2022-08-25T13:53:20;5.50;;;2.85;;
28904;SDS011;60848;53.884;11.446;2022-08-25T13:55:51;6.28;;;2.90;;
28904;SDS011;60848;53.884;11.446;2022-08-25T13:58:25;6.43;;;2.88;;
28904;SDS011;60848;53.884;11.446;2022-08-25T14:01:11;4.35;;;3.22;;
28904;SDS011;60848;53.884;11.446;2022-08-25T14:07:04;6.32;;;2.92;;
28904;SDS011;60848;53.884;11.446;2022-08-25T14:09:38;5.53;;;2.88;;
28904;SDS011;60848;53.884;11.446;2022-08-25T14:12:07;5.50;;;2.90;;
28904;SDS011;60848;53.884;11.446;2022-08-25T14:14:58;5.45;;;3.03;;
28904;SDS011;60848;53.884;11.446;2022-08-25T14:17:28;8.20;;;3.28;;
28904;SDS011;60848;53.884;11.446;2022-08-25T14:20:13;7.45;;;3.03;;
28904;SDS011;60848;53.884;11.446;2022-08-25T14:22:51;5.65;;;3.00;;
28904;SDS011;60848;53.884;11.446;2022-08-25T14:25:24;8.45;;;3.03;;
28904;SDS011;60848;53.884;11.446;2022-08-25T14:27:55;8.52;;;3.20;;
28904;SDS011;60848;53.884;11.446;2022-08-25T14:30:36;6.80;;;2.80;;
28904;SDS011;60848;53.884;11.446;2022-08-25T14:33:11;11.10;;;3.15;;
28904;SDS011;60848;53.884;11.446;2022-08-25T14:35:42;5.63;;;2.37;;
28904;SDS011;60848;53.884;11.446;2022-08-25T14:38:13;7.47;;;2.90;;
28904;SDS011;60848;53.884;11.446;2022-08-25T14:40:43;6.35;;;2.53;;
28904;SDS011;60848;53.884;11.446;2022-08-25T14:43:12;5.85;;;2.55;;
28904;SDS011;60848;53.884;11.446;2022-08-25T14:45:43;7.55;;;2.67;;
28904;SDS011;60848;53.884;11.446;2022-08-25T14:48:16;6.40;;;2.95;;
28904;SDS011;60848;53.884;11.446;2022-08-25T14:50:53;7.15;;;2.83;;
28904;SDS011;60848;53.884;11.446;2022-08-25T14:53:25;7.82;;;3.05;;
28904;SDS011;60848;53.884;11.446;2022-08-25T14:55:54;4.95;;;2.55;;
28904;SDS011;60848;53.884;11.446;2022-08-25T14:58:25;8.57;;;3.00;;
28904;SDS011;60848;53.884;11.446;2022-08-25T15:01:01;4.68;;;2.80;;
28904;SDS011;60848;53.884;11.446;2022-08-25T15:03:35;9.63;;;3.00;;
28904;SDS011;60848;53.884;11.446;2022-08-25T15:06:07;6.13;;;3.00;;
28904;SDS011;60848;53.884;11.446;2022-08-25T15:08:37;7.03;;;2.95;;
28904;SDS011;60848;53.884;11.446;2022-08-25T15:11:23;4.85;;;2.85;;
28904;SDS011;60848;53.884;11.446;2022-08-25T15:13:54;6.93;;;3.15;;
28904;SDS011;60848;53.884;11.446;2022-08-25T15:16:28;6.95;;;3.00;;
28904;SDS011;60848;53.884;11.446;2022-08-25T15:19:03;8.20;;;3.25;;
28904;SDS011;60848;53.884;11.446;2022-08-25T15:21:33;7.87;;;3.13;;
28904;SDS011;60848;53.884;11.446;2022-08-25T15:24:02;6.60;;;2.80;;
28904;SDS011;60848;53.884;11.446;2022-08-25T15:26:33;5.53;;;2.70;;
28904;SDS011;60848;53.884;11.446;2022-08-25T15:29:06;6.00;;;2.80;;
28904;SDS011;60848;53.884;11.446;2022-08-25T15:31:39;4.90;;;3.03;;
28904;SDS011;60848;53.884;11.446;2022-08-25T15:34:07;6.10;;;2.67;;
28904;SDS011;60848;53.884;11.446;2022-08-25T15:36:37;8.23;;;3.33;;
28904;SDS011;60848;53.884;11.446;2022-08-25T15:39:07;6.28;;;2.95;;
28904;SDS011;60848;53.884;11.446;2022-08-25T15:41:36;4.72;;;2.75;;
28904;SDS011;60848;53.884;11.446;2022-08-25T15:44:08;6.30;;;3.38;;
28904;SDS011;60848;53.884;11.446;2022-08-25T15:46:41;6.88;;;2.90;;
28904;SDS011;60848;53.884;11.446;2022-08-25T15:49:16;6.38;;;3.35;;
28904;SDS011;60848;53.884;11.446;2022-08-25T15:51:49;7.40;;;3.08;;
28904;SDS011;60848;53.884;11.446;2022-08-25T15:54:17;9.02;;;3.05;;
28904;SDS011;60848;53.884;11.446;2022-08-25T15:56:47;8.30;;;3.75;;
28904;SDS011;60848;53.884;11.446;2022-08-25T15:59:17;5.32;;;3.17;;
28904;SDS011;60848;53.884;11.446;2022-08-25T16:01:48;8.20;;;3.70;;
28904;SDS011;60848;53.884;11.446;2022-08-25T16:04:19;7.63;;;3.28;;
28904;SDS011;60848;53.884;11.446;2022-08-25T16:06:51;7.85;;;3.55;;
28904;SDS011;60848;53.884;11.446;2022-08-25T16:09:21;7.97;;;3.95;;
28904;SDS011;60848;53.884;11.446;2022-08-25T16:11:50;8.05;;;3.85;;
28904;SDS011;60848;53.884;11.446;2022-08-25T16:14:24;7.43;;;3.45;;
28904;SDS011;60848;53.884;11.446;2022-08-25T16:19:25;6.97;;;3.13;;
28904;SDS011;60848;53.884;11.446;2022-08-25T16:21:54;7.57;;;3.88;;
28904;SDS011;60848;53.884;11.446;2022-08-25T16:24:25;8.85;;;5.90;;
28904;SDS011;60848;53.884;11.446;2022-08-25T16:26:54;8.47;;;3.60;;
28904;SDS011;60848;53.884;11.446;2022-08-25T16:29:38;7.30;;;3.63;;
28904;SDS011;60848;53.884;11.446;2022-08-25T16:32:09;11.25;;;3.85;;
28904;SDS011;60848;53.884;11.446;2022-08-25T16:34:39;7.43;;;3.88;;
28904;SDS011;60848;53.884;11.446;2022-08-25T16:37:09;10.40;;;3.72;;
28904;SDS011;60848;53.884;11.446;2022-08-25T16:39:38;7.85;;;3.90;;
28904;SDS011;60848;53.884;11.446;2022-08-25T16:42:11;10.63;;;3.53;;
28904;SDS011;60848;53.884;11.446;2022-08-25T16:44:39;10.98;;;4.15;;
28904;SDS011;60848;53.884;11.446;2022-08-25T16:47:09;8.50;;;3.75;;
28904;SDS011;60848;53.884;11.446;2022-08-25T16:49:44;7.80;;;4.00;;
28904;SDS011;60848;53.884;11.446;2022-08-25T16:52:13;9.48;;;4.35;;
28904;SDS011;60848;53.884;11.446;2022-08-25T17:05:15;10.35;;;5.30;;
28904;SDS011;60848;53.884;11.446;2022-08-25T17:07:44;8.52;;;3.85;;
28904;SDS011;60848;53.884;11.446;2022-08-25T17:10:35;7.63;;;3.70;;
28904;SDS011;60848;53.884;11.446;2022-08-25T17:13:04;6.28;;;3.60;;
28904;SDS011;60848;53.884;11.446;2022-08-25T18:00:41;8.68;;;3.28;;
28904;SDS011;60848;53.884;11.446;2022-08-25T18:03:14;11.65;;;4.00;;
28904;SDS011;60848;53.884;11.446;2022-08-25T18:05:42;10.10;;;4.13;;
28904;SDS011;60848;53.884;11.446;2022-08-25T19:56:37;10.80;;;4.80;;
28904;SDS011;60848;53.884;11.446;2022-08-25T19:59:20;12.95;;;5.47;;
28904;SDS011;60848;53.884;11.446;2022-08-25T20:01:51;11.10;;;6.10;;
28904;SDS011;60848;53.884;11.446;2022-08-25T20:04:20;8.90;;;5.22;;
28904;SDS011;60848;53.884;11.446;2022-08-25T20:06:50;13.63;;;5.78;;
28904;SDS011;60848;53.884;11.446;2022-08-25T20:09:22;11.07;;;5.63;;
28904;SDS011;60848;53.884;11.446;2022-08-25T20:12:05;10.95;;;5.40;;
28904;SDS011;60848;53.884;11.446;2022-08-25T20:14:35;12.68;;;5.30;;
28904;SDS011;60848;53.884;11.446;2022-08-25T20:17:07;9.38;;;5.00;;
28904;SDS011;60848;53.884;11.446;2022-08-25T20:19:49;10.68;;;5.30;;
28904;SDS011;60848;53.884;11.446;2022-08-25T20:22:19;11.35;;;5.07;;
28904;SDS011;60848;53.884;11.446;2022-08-25T20:24:53;8.88;;;5.05;;
28904;SDS011;60848;53.884;11.446;2022-08-25T20:27:25;13.18;;;5.38;;
28904;SDS011;60848;53.884;11.446;2022-08-25T20:29:57;12.07;;;5.25;;
28904;SDS011;60848;53.884;11.446;2022-08-25T20:32:28;13.45;;;5.35;;
28904;SDS011;60848;53.884;11.446;2022-08-25T22:19:51;11.68;;;5.57;;
28904;SDS011;60848;53.884;11.446;2022-08-25T22:22:21;11.70;;;6.40;;
28904;SDS011;60848;53.884;11.446;2022-08-25T22:24:50;17.15;;;7.30;;
28904;SDS011;60848;53.884;11.446;2022-08-25T22:27:19;13.48;;;7.10;;
28904;SDS011;60848;53.884;11.446;2022-08-25T22:29:49;13.20;;;7.60;;
28904;SDS011;60848;53.884;11.446;2022-08-25T22:32:18;15.10;;;7.47;;
28904;SDS011;60848;53.884;11.446;2022-08-25T22:34:47;14.27;;;7.30;;
28904;SDS011;60848;53.884;11.446;2022-08-25T22:37:16;15.25;;;7.30;;
28904;SDS011;60848;53.884;11.446;2022-08-25T22:39:45;14.57;;;7.35;;
28904;SDS011;60848;53.884;11.446;2022-08-25T22:42:16;15.98;;;7.57;;
28904;SDS011;60848;53.884;11.446;2022-08-25T22:44:50;13.85;;;7.47;;
28904;SDS011;60848;53.884;11.446;2022-08-25T22:47:20;13.38;;;7.57;;